Main page
METAR-TAF:

METAR-TAF

Airports :

London Biggin Hill Airport

London Biggin Hill, England

latitude: 51-19N, longitude: 000-02E, elevation: 183 m

Current weather observation

The report was made 6 hours and 46 minutes ago, at 21:20 UTC
Wind 11 kt from the West/Southwest, varying between South/Southwest and West
Temperature 10°C
Humidity 87%
Pressure 999 hPa
Visibility 10 km or more
Scattered clouds at a height of 1500 ft

METAR: EGKB 232120Z 25011KT 210V280 9999 SCT015 10/08 Q0999

Time: 05:06 (04:06 UTC)

Forecast

The report was made 11 hours and 1 minutes ago, at 17:05 UTC
Forecast valid from 23 at 18 UTC to 23 at 22 UTC
Wind 12 kt from the West/Southwest
Visibility 10 km or more
Scattered clouds at a height of 2200 ft
Temporary
from 23 at 18 UTC to 23 at 22 UTC
Visibility: 6000 m
Broken clouds at a height of 1200 ft
rain, rain showers

TAF: EGKB 231705Z 2318/2322 24012KT 9999 SCT022 TEMPO 2318/2322 6000 RA SHRA BKN012

Weather observations and forecasts of more than 4000 airports (METAR and TAF reports).

The available stations are represented by yellow and red dots on the map.

Hover mouse over dot to see the name of the station.

Then click to see weather observations and forecasts.

To change the map : click on the green buttons with a black cross to zoom in, on the green button with a dash to zoom out, or on the green arrows for adjacent maps.


METAR-TAF: